sensor_id;sensor_type;location;lat;lon;timestamp;P1;durP1;ratioP1;P2;durP2;ratioP2
58470;SDS011;44258;51.288;12.068;2023-02-20T00:00:34;11.02;;;5.00;;
58470;SDS011;44258;51.288;12.068;2023-02-20T00:03:03;12.80;;;4.55;;
58470;SDS011;44258;51.288;12.068;2023-02-20T00:05:30;10.30;;;5.07;;
58470;SDS011;44258;51.288;12.068;2023-02-20T00:07:57;11.40;;;5.18;;
58470;SDS011;44258;51.288;12.068;2023-02-20T00:10:24;14.98;;;6.22;;
58470;SDS011;44258;51.288;12.068;2023-02-20T00:12:51;11.70;;;5.45;;
58470;SDS011;44258;51.288;12.068;2023-02-20T00:15:18;12.85;;;5.47;;
58470;SDS011;44258;51.288;12.068;2023-02-20T00:17:46;13.52;;;5.90;;
58470;SDS011;44258;51.288;12.068;2023-02-20T00:20:15;13.93;;;5.95;;
58470;SDS011;44258;51.288;12.068;2023-02-20T00:22:42;13.27;;;5.70;;
58470;SDS011;44258;51.288;12.068;2023-02-20T00:25:09;11.45;;;5.60;;
58470;SDS011;44258;51.288;12.068;2023-02-20T00:27:36;13.15;;;5.05;;
58470;SDS011;44258;51.288;12.068;2023-02-20T00:30:03;13.07;;;5.05;;
58470;SDS011;44258;51.288;12.068;2023-02-20T00:32:30;11.40;;;5.32;;
58470;SDS011;44258;51.288;12.068;2023-02-20T00:34:56;10.52;;;4.47;;
58470;SDS011;44258;51.288;12.068;2023-02-20T00:37:25;11.13;;;4.38;;
58470;SDS011;44258;51.288;12.068;2023-02-20T00:39:51;9.55;;;4.03;;
58470;SDS011;44258;51.288;12.068;2023-02-20T00:42:18;11.52;;;4.60;;
58470;SDS011;44258;51.288;12.068;2023-02-20T00:44:44;10.95;;;4.28;;
58470;SDS011;44258;51.288;12.068;2023-02-20T00:47:11;9.50;;;4.38;;
58470;SDS011;44258;51.288;12.068;2023-02-20T00:49:38;11.80;;;4.68;;
58470;SDS011;44258;51.288;12.068;2023-02-20T00:52:05;9.73;;;4.82;;
58470;SDS011;44258;51.288;12.068;2023-02-20T00:54:33;10.88;;;4.22;;
58470;SDS011;44258;51.288;12.068;2023-02-20T00:57:00;9.55;;;3.85;;
58470;SDS011;44258;51.288;12.068;2023-02-20T00:59:26;10.15;;;4.32;;
58470;SDS011;44258;51.288;12.068;2023-02-20T01:01:52;10.20;;;4.25;;
58470;SDS011;44258;51.288;12.068;2023-02-20T01:04:19;12.30;;;4.20;;
58470;SDS011;44258;51.288;12.068;2023-02-20T01:06:45;9.00;;;4.00;;
58470;SDS011;44258;51.288;12.068;2023-02-20T01:09:12;12.77;;;4.55;;
58470;SDS011;44258;51.288;12.068;2023-02-20T01:11:41;10.85;;;4.55;;
58470;SDS011;44258;51.288;12.068;2023-02-20T01:14:08;9.70;;;4.03;;
58470;SDS011;44258;51.288;12.068;2023-02-20T01:16:35;10.32;;;4.20;;
58470;SDS011;44258;51.288;12.068;2023-02-20T01:19:02;11.05;;;4.55;;
58470;SDS011;44258;51.288;12.068;2023-02-20T01:21:28;10.18;;;4.63;;
58470;SDS011;44258;51.288;12.068;2023-02-20T01:23:55;9.77;;;4.25;;
58470;SDS011;44258;51.288;12.068;2023-02-20T01:26:21;11.32;;;4.47;;
58470;SDS011;44258;51.288;12.068;2023-02-20T01:28:49;10.00;;;4.35;;
58470;SDS011;44258;51.288;12.068;2023-02-20T01:31:15;10.68;;;4.68;;
58470;SDS011;44258;51.288;12.068;2023-02-20T01:33:42;11.23;;;4.78;;
58470;SDS011;44258;51.288;12.068;2023-02-20T01:36:09;12.70;;;4.68;;
58470;SDS011;44258;51.288;12.068;2023-02-20T01:38:35;10.68;;;4.82;;
58470;SDS011;44258;51.288;12.068;2023-02-20T01:41:04;12.48;;;5.07;;
58470;SDS011;44258;51.288;12.068;2023-02-20T01:43:31;13.48;;;5.22;;
58470;SDS011;44258;51.288;12.068;2023-02-20T01:48:59;11.93;;;5.22;;
58470;SDS011;44258;51.288;12.068;2023-02-20T01:51:30;10.80;;;4.70;;
58470;SDS011;44258;51.288;12.068;2023-02-20T01:54:00;13.30;;;5.30;;
58470;SDS011;44258;51.288;12.068;2023-02-20T01:56:28;13.27;;;5.38;;
58470;SDS011;44258;51.288;12.068;2023-02-20T01:58:54;12.68;;;5.28;;
58470;SDS011;44258;51.288;12.068;2023-02-20T02:01:21;12.45;;;5.47;;
58470;SDS011;44258;51.288;12.068;2023-02-20T02:03:48;12.05;;;4.90;;
58470;SDS011;44258;51.288;12.068;2023-02-20T02:06:22;12.82;;;4.70;;
58470;SDS011;44258;51.288;12.068;2023-02-20T02:08:49;10.40;;;4.75;;
58470;SDS011;44258;51.288;12.068;2023-02-20T02:11:18;11.45;;;5.30;;
58470;SDS011;44258;51.288;12.068;2023-02-20T02:13:48;12.05;;;5.45;;
58470;SDS011;44258;51.288;12.068;2023-02-20T02:16:17;11.73;;;4.88;;
58470;SDS011;44258;51.288;12.068;2023-02-20T02:18:52;10.80;;;5.10;;
58470;SDS011;44258;51.288;12.068;2023-02-20T02:27:40;12.75;;;4.63;;
58470;SDS011;44258;51.288;12.068;2023-02-20T02:30:43;13.30;;;5.63;;
58470;SDS011;44258;51.288;12.068;2023-02-20T02:33:33;13.88;;;5.97;;
58470;SDS011;44258;51.288;12.068;2023-02-20T02:36:23;14.43;;;6.03;;
58470;SDS011;44258;51.288;12.068;2023-02-20T02:39:16;15.23;;;6.63;;
58470;SDS011;44258;51.288;12.068;2023-02-20T02:41:52;15.45;;;6.18;;
58470;SDS011;44258;51.288;12.068;2023-02-20T02:44:22;15.90;;;6.30;;
58470;SDS011;44258;51.288;12.068;2023-02-20T02:46:56;14.40;;;6.22;;
58470;SDS011;44258;51.288;12.068;2023-02-20T02:49:28;14.23;;;6.18;;
58470;SDS011;44258;51.288;12.068;2023-02-20T02:52:01;13.50;;;6.00;;
58470;SDS011;44258;51.288;12.068;2023-02-20T02:54:29;13.07;;;5.93;;
58470;SDS011;44258;51.288;12.068;2023-02-20T02:59:45;15.93;;;6.43;;
58470;SDS011;44258;51.288;12.068;2023-02-20T03:02:15;13.60;;;6.22;;
58470;SDS011;44258;51.288;12.068;2023-02-20T03:04:44;15.18;;;6.03;;
58470;SDS011;44258;51.288;12.068;2023-02-20T03:07:15;13.65;;;5.85;;
58470;SDS011;44258;51.288;12.068;2023-02-20T03:09:44;15.40;;;5.90;;
58470;SDS011;44258;51.288;12.068;2023-02-20T03:12:14;15.00;;;5.90;;
58470;SDS011;44258;51.288;12.068;2023-02-20T03:14:43;12.10;;;5.38;;
58470;SDS011;44258;51.288;12.068;2023-02-20T03:17:34;12.85;;;5.20;;
58470;SDS011;44258;51.288;12.068;2023-02-20T03:20:05;12.38;;;5.18;;
58470;SDS011;44258;51.288;12.068;2023-02-20T03:22:37;13.35;;;5.40;;
58470;SDS011;44258;51.288;12.068;2023-02-20T03:25:07;14.40;;;5.55;;
58470;SDS011;44258;51.288;12.068;2023-02-20T03:27:38;13.98;;;6.00;;
58470;SDS011;44258;51.288;12.068;2023-02-20T03:30:10;15.77;;;6.00;;
58470;SDS011;44258;51.288;12.068;2023-02-20T03:32:40;15.40;;;6.88;;
58470;SDS011;44258;51.288;12.068;2023-02-20T03:35:27;14.40;;;5.85;;
58470;SDS011;44258;51.288;12.068;2023-02-20T03:38:16;14.82;;;5.65;;
58470;SDS011;44258;51.288;12.068;2023-02-20T03:41:03;13.40;;;5.55;;
58470;SDS011;44258;51.288;12.068;2023-02-20T03:43:49;13.77;;;5.28;;
58470;SDS011;44258;51.288;12.068;2023-02-20T03:46:19;12.85;;;5.00;;
58470;SDS011;44258;51.288;12.068;2023-02-20T03:48:48;13.18;;;5.03;;
58470;SDS011;44258;51.288;12.068;2023-02-20T03:51:18;12.93;;;5.05;;
58470;SDS011;44258;51.288;12.068;2023-02-20T03:53:46;11.27;;;4.70;;
58470;SDS011;44258;51.288;12.068;2023-02-20T03:56:14;13.00;;;4.88;;
58470;SDS011;44258;51.288;12.068;2023-02-20T03:58:44;13.48;;;5.57;;
58470;SDS011;44258;51.288;12.068;2023-02-20T04:01:15;13.32;;;5.32;;
58470;SDS011;44258;51.288;12.068;2023-02-20T04:03:45;11.52;;;4.82;;
58470;SDS011;44258;51.288;12.068;2023-02-20T04:06:15;15.38;;;5.68;;
58470;SDS011;44258;51.288;12.068;2023-02-20T04:08:46;12.90;;;4.78;;
58470;SDS011;44258;51.288;12.068;2023-02-20T04:11:18;13.15;;;4.90;;
58470;SDS011;44258;51.288;12.068;2023-02-20T04:13:49;12.27;;;4.85;;
58470;SDS011;44258;51.288;12.068;2023-02-20T04:16:18;12.38;;;5.20;;
58470;SDS011;44258;51.288;12.068;2023-02-20T04:18:46;10.30;;;4.07;;
58470;SDS011;44258;51.288;12.068;2023-02-20T04:21:16;12.88;;;5.35;;
58470;SDS011;44258;51.288;12.068;2023-02-20T04:23:48;11.77;;;4.43;;
58470;SDS011;44258;51.288;12.068;2023-02-20T04:26:22;12.27;;;4.65;;
58470;SDS011;44258;51.288;12.068;2023-02-20T04:28:48;13.32;;;5.20;;
58470;SDS011;44258;51.288;12.068;2023-02-20T04:31:16;12.40;;;4.75;;
58470;SDS011;44258;51.288;12.068;2023-02-20T04:33:44;12.95;;;5.80;;
58470;SDS011;44258;51.288;12.068;2023-02-20T04:36:11;16.02;;;6.32;;
58470;SDS011;44258;51.288;12.068;2023-02-20T04:38:37;12.40;;;5.22;;
58470;SDS011;44258;51.288;12.068;2023-02-20T04:41:05;14.27;;;5.85;;
58470;SDS011;44258;51.288;12.068;2023-02-20T04:43:31;13.70;;;5.07;;
58470;SDS011;44258;51.288;12.068;2023-02-20T04:45:58;13.45;;;5.95;;
58470;SDS011;44258;51.288;12.068;2023-02-20T04:48:25;12.93;;;4.57;;
58470;SDS011;44258;51.288;12.068;2023-02-20T04:50:52;12.27;;;5.10;;
58470;SDS011;44258;51.288;12.068;2023-02-20T04:53:18;12.90;;;5.53;;
58470;SDS011;44258;51.288;12.068;2023-02-20T04:55:45;12.82;;;5.57;;
58470;SDS011;44258;51.288;12.068;2023-02-20T04:58:13;14.32;;;5.50;;
58470;SDS011;44258;51.288;12.068;2023-02-20T05:00:39;13.82;;;5.20;;
58470;SDS011;44258;51.288;12.068;2023-02-20T05:03:06;13.25;;;5.78;;
58470;SDS011;44258;51.288;12.068;2023-02-20T05:05:32;12.93;;;5.63;;
58470;SDS011;44258;51.288;12.068;2023-02-20T05:08:00;12.07;;;5.18;;
58470;SDS011;44258;51.288;12.068;2023-02-20T05:10:29;13.68;;;5.55;;
58470;SDS011;44258;51.288;12.068;2023-02-20T05:12:56;11.70;;;4.88;;
58470;SDS011;44258;51.288;12.068;2023-02-20T05:15:25;13.13;;;5.32;;
58470;SDS011;44258;51.288;12.068;2023-02-20T05:17:52;12.65;;;5.35;;
58470;SDS011;44258;51.288;12.068;2023-02-20T05:20:18;12.00;;;4.85;;
58470;SDS011;44258;51.288;12.068;2023-02-20T05:23:06;10.98;;;4.63;;
58470;SDS011;44258;51.288;12.068;2023-02-20T05:27:58;12.20;;;5.07;;
58470;SDS011;44258;51.288;12.068;2023-02-20T05:30:26;13.02;;;5.13;;
58470;SDS011;44258;51.288;12.068;2023-02-20T05:32:52;11.18;;;4.75;;
58470;SDS011;44258;51.288;12.068;2023-02-20T05:35:18;11.90;;;4.57;;
58470;SDS011;44258;51.288;12.068;2023-02-20T05:37:45;8.73;;;3.83;;
58470;SDS011;44258;51.288;12.068;2023-02-20T05:40:11;11.27;;;4.45;;
58470;SDS011;44258;51.288;12.068;2023-02-20T05:42:38;9.63;;;4.40;;
58470;SDS011;44258;51.288;12.068;2023-02-20T05:45:07;10.77;;;4.13;;
58470;SDS011;44258;51.288;12.068;2023-02-20T05:47:36;10.60;;;4.13;;
58470;SDS011;44258;51.288;12.068;2023-02-20T05:50:03;10.25;;;4.57;;
58470;SDS011;44258;51.288;12.068;2023-02-20T05:52:30;9.60;;;3.90;;
58470;SDS011;44258;51.288;12.068;2023-02-20T05:54:57;10.38;;;4.20;;
58470;SDS011;44258;51.288;12.068;2023-02-20T05:57:23;11.15;;;3.67;;
58470;SDS011;44258;51.288;12.068;2023-02-20T05:59:50;10.75;;;3.55;;
58470;SDS011;44258;51.288;12.068;2023-02-20T06:02:16;10.43;;;3.78;;
58470;SDS011;44258;51.288;12.068;2023-02-20T06:04:44;9.35;;;3.90;;
58470;SDS011;44258;51.288;12.068;2023-02-20T06:07:10;11.07;;;4.38;;
58470;SDS011;44258;51.288;12.068;2023-02-20T06:09:40;10.23;;;4.28;;
58470;SDS011;44258;51.288;12.068;2023-02-20T06:12:07;9.30;;;3.88;;
58470;SDS011;44258;51.288;12.068;2023-02-20T06:14:33;12.00;;;4.53;;
58470;SDS011;44258;51.288;12.068;2023-02-20T06:17:00;10.82;;;4.53;;
58470;SDS011;44258;51.288;12.068;2023-02-20T06:19:27;10.85;;;4.55;;
58470;SDS011;44258;51.288;12.068;2023-02-20T06:21:55;11.15;;;4.78;;
58470;SDS011;44258;51.288;12.068;2023-02-20T06:24:22;11.45;;;5.03;;
58470;SDS011;44258;51.288;12.068;2023-02-20T06:26:49;12.65;;;4.80;;
58470;SDS011;44258;51.288;12.068;2023-02-20T06:29:16;11.02;;;4.75;;
58470;SDS011;44258;51.288;12.068;2023-02-20T06:31:43;11.63;;;5.07;;
58470;SDS011;44258;51.288;12.068;2023-02-20T06:34:10;12.50;;;5.55;;
58470;SDS011;44258;51.288;12.068;2023-02-20T06:36:38;12.73;;;5.80;;
58470;SDS011;44258;51.288;12.068;2023-02-20T06:39:07;14.48;;;5.95;;
58470;SDS011;44258;51.288;12.068;2023-02-20T06:41:35;13.13;;;5.78;;
58470;SDS011;44258;51.288;12.068;2023-02-20T06:44:02;12.95;;;5.65;;
58470;SDS011;44258;51.288;12.068;2023-02-20T06:46:29;14.82;;;5.38;;
58470;SDS011;44258;51.288;12.068;2023-02-20T06:48:56;14.57;;;5.53;;
58470;SDS011;44258;51.288;12.068;2023-02-20T06:51:24;14.15;;;6.05;;
58470;SDS011;44258;51.288;12.068;2023-02-20T06:53:51;15.05;;;5.95;;
58470;SDS011;44258;51.288;12.068;2023-02-20T06:56:21;14.52;;;5.95;;
58470;SDS011;44258;51.288;12.068;2023-02-20T06:58:50;14.75;;;6.20;;
58470;SDS011;44258;51.288;12.068;2023-02-20T07:01:18;15.25;;;6.35;;
58470;SDS011;44258;51.288;12.068;2023-02-20T07:03:46;11.07;;;5.10;;
58470;SDS011;44258;51.288;12.068;2023-02-20T07:06:14;12.85;;;5.50;;
58470;SDS011;44258;51.288;12.068;2023-02-20T07:08:41;12.70;;;6.10;;
58470;SDS011;44258;51.288;12.068;2023-02-20T07:11:07;13.65;;;5.40;;
58470;SDS011;44258;51.288;12.068;2023-02-20T07:13:35;14.65;;;6.10;;
58470;SDS011;44258;51.288;12.068;2023-02-20T07:16:02;13.50;;;6.20;;
58470;SDS011;44258;51.288;12.068;2023-02-20T07:18:28;13.48;;;5.90;;
58470;SDS011;44258;51.288;12.068;2023-02-20T07:20:55;14.25;;;6.22;;
58470;SDS011;44258;51.288;12.068;2023-02-20T07:23:22;13.95;;;5.70;;
58470;SDS011;44258;51.288;12.068;2023-02-20T07:25:48;13.57;;;5.90;;
58470;SDS011;44258;51.288;12.068;2023-02-20T07:28:15;14.73;;;6.53;;
58470;SDS011;44258;51.288;12.068;2023-02-20T07:30:44;14.10;;;6.55;;
58470;SDS011;44258;51.288;12.068;2023-02-20T07:33:13;12.73;;;5.68;;
58470;SDS011;44258;51.288;12.068;2023-02-20T07:35:43;14.13;;;5.90;;
58470;SDS011;44258;51.288;12.068;2023-02-20T07:38:09;12.65;;;6.53;;
58470;SDS011;44258;51.288;12.068;2023-02-20T07:40:36;15.93;;;6.40;;
58470;SDS011;44258;51.288;12.068;2023-02-20T07:43:03;12.40;;;5.72;;
58470;SDS011;44258;51.288;12.068;2023-02-20T07:45:29;13.65;;;5.82;;
58470;SDS011;44258;51.288;12.068;2023-02-20T07:47:57;13.50;;;5.75;;
58470;SDS011;44258;51.288;12.068;2023-02-20T07:50:23;11.68;;;5.00;;
58470;SDS011;44258;51.288;12.068;2023-02-20T07:52:50;15.25;;;5.93;;
58470;SDS011;44258;51.288;12.068;2023-02-20T07:55:17;14.27;;;5.28;;
58470;SDS011;44258;51.288;12.068;2023-02-20T07:57:44;12.07;;;5.32;;
58470;SDS011;44258;51.288;12.068;2023-02-20T08:00:13;12.18;;;4.80;;
58470;SDS011;44258;51.288;12.068;2023-02-20T08:02:41;12.40;;;5.43;;
58470;SDS011;44258;51.288;12.068;2023-02-20T08:05:09;11.10;;;4.93;;
58470;SDS011;44258;51.288;12.068;2023-02-20T08:07:35;12.20;;;5.20;;
58470;SDS011;44258;51.288;12.068;2023-02-20T08:10:02;12.10;;;4.60;;
58470;SDS011;44258;51.288;12.068;2023-02-20T08:12:29;10.88;;;4.55;;
58470;SDS011;44258;51.288;12.068;2023-02-20T08:14:55;12.05;;;4.47;;
58470;SDS011;44258;51.288;12.068;2023-02-20T08:17:22;10.20;;;4.20;;
58470;SDS011;44258;51.288;12.068;2023-02-20T08:19:48;11.07;;;4.85;;
58470;SDS011;44258;51.288;12.068;2023-02-20T08:22:16;12.80;;;4.45;;
58470;SDS011;44258;51.288;12.068;2023-02-20T08:24:43;11.15;;;4.85;;
58470;SDS011;44258;51.288;12.068;2023-02-20T08:27:09;12.85;;;4.50;;
58470;SDS011;44258;51.288;12.068;2023-02-20T08:29:37;11.05;;;4.43;;
58470;SDS011;44258;51.288;12.068;2023-02-20T08:32:03;10.60;;;4.85;;
58470;SDS011;44258;51.288;12.068;2023-02-20T08:34:30;10.95;;;4.30;;
58470;SDS011;44258;51.288;12.068;2023-02-20T08:36:57;9.57;;;3.70;;
58470;SDS011;44258;51.288;12.068;2023-02-20T08:39:25;8.02;;;3.38;;
58470;SDS011;44258;51.288;12.068;2023-02-20T08:41:51;9.73;;;3.83;;
58470;SDS011;44258;51.288;12.068;2023-02-20T08:44:18;8.95;;;3.30;;
58470;SDS011;44258;51.288;12.068;2023-02-20T08:46:45;9.80;;;3.40;;
58470;SDS011;44258;51.288;12.068;2023-02-20T08:49:12;8.30;;;3.30;;
58470;SDS011;44258;51.288;12.068;2023-02-20T08:51:40;10.32;;;3.70;;
58470;SDS011;44258;51.288;12.068;2023-02-20T08:54:07;9.55;;;3.65;;
58470;SDS011;44258;51.288;12.068;2023-02-20T08:56:37;8.77;;;3.05;;
58470;SDS011;44258;51.288;12.068;2023-02-20T08:59:04;9.73;;;3.40;;
58470;SDS011;44258;51.288;12.068;2023-02-20T09:01:30;7.40;;;3.10;;
58470;SDS011;44258;51.288;12.068;2023-02-20T09:03:57;8.32;;;2.90;;
58470;SDS011;44258;51.288;12.068;2023-02-20T09:06:23;7.60;;;2.95;;
58470;SDS011;44258;51.288;12.068;2023-02-20T09:08:50;7.90;;;2.80;;
58470;SDS011;44258;51.288;12.068;2023-02-20T09:11:16;7.95;;;2.83;;
58470;SDS011;44258;51.288;12.068;2023-02-20T09:13:44;8.35;;;2.88;;
58470;SDS011;44258;51.288;12.068;2023-02-20T09:16:13;7.47;;;2.72;;
58470;SDS011;44258;51.288;12.068;2023-02-20T09:18:42;5.97;;;2.50;;
58470;SDS011;44258;51.288;12.068;2023-02-20T09:21:10;7.10;;;3.20;;
58470;SDS011;44258;51.288;12.068;2023-02-20T09:23:37;7.00;;;2.70;;
58470;SDS011;44258;51.288;12.068;2023-02-20T09:26:04;7.63;;;2.88;;
58470;SDS011;44258;51.288;12.068;2023-02-20T09:28:31;6.80;;;2.53;;
58470;SDS011;44258;51.288;12.068;2023-02-20T09:30:59;8.15;;;2.97;;
58470;SDS011;44258;51.288;12.068;2023-02-20T09:33:26;6.60;;;2.78;;
58470;SDS011;44258;51.288;12.068;2023-02-20T09:35:53;8.82;;;2.80;;
58470;SDS011;44258;51.288;12.068;2023-02-20T09:38:20;6.50;;;2.45;;
58470;SDS011;44258;51.288;12.068;2023-02-20T09:40:52;7.00;;;2.58;;
58470;SDS011;44258;51.288;12.068;2023-02-20T09:43:22;8.32;;;2.60;;
58470;SDS011;44258;51.288;12.068;2023-02-20T09:45:56;6.55;;;2.50;;
58470;SDS011;44258;51.288;12.068;2023-02-20T09:48:33;7.97;;;2.55;;
58470;SDS011;44258;51.288;12.068;2023-02-20T09:51:13;5.03;;;2.03;;
58470;SDS011;44258;51.288;12.068;2023-02-20T09:53:44;6.05;;;2.22;;
58470;SDS011;44258;51.288;12.068;2023-02-20T09:56:18;6.28;;;2.42;;
58470;SDS011;44258;51.288;12.068;2023-02-20T09:58:52;5.00;;;2.13;;
58470;SDS011;44258;51.288;12.068;2023-02-20T10:01:27;8.13;;;2.28;;
58470;SDS011;44258;51.288;12.068;2023-02-20T10:03:55;5.93;;;2.30;;
58470;SDS011;44258;51.288;12.068;2023-02-20T10:06:24;4.55;;;1.90;;
58470;SDS011;44258;51.288;12.068;2023-02-20T10:08:52;6.55;;;2.42;;
58470;SDS011;44258;51.288;12.068;2023-02-20T10:11:21;5.03;;;1.98;;
58470;SDS011;44258;51.288;12.068;2023-02-20T10:13:58;6.00;;;2.30;;
58470;SDS011;44258;51.288;12.068;2023-02-20T10:16:41;4.97;;;1.80;;
58470;SDS011;44258;51.288;12.068;2023-02-20T10:19:16;5.35;;;2.17;;
58470;SDS011;44258;51.288;12.068;2023-02-20T10:21:51;4.15;;;1.95;;
58470;SDS011;44258;51.288;12.068;2023-02-20T10:27:03;8.25;;;2.17;;
58470;SDS011;44258;51.288;12.068;2023-02-20T10:29:43;5.95;;;2.25;;
58470;SDS011;44258;51.288;12.068;2023-02-20T10:32:13;5.88;;;2.28;;
58470;SDS011;44258;51.288;12.068;2023-02-20T10:34:46;5.53;;;2.08;;
58470;SDS011;44258;51.288;12.068;2023-02-20T10:37:20;4.85;;;1.90;;
58470;SDS011;44258;51.288;12.068;2023-02-20T10:39:51;7.13;;;2.30;;
58470;SDS011;44258;51.288;12.068;2023-02-20T10:42:25;5.35;;;1.92;;
58470;SDS011;44258;51.288;12.068;2023-02-20T10:44:58;7.00;;;2.85;;
58470;SDS011;44258;51.288;12.068;2023-02-20T10:47:29;6.70;;;2.20;;
58470;SDS011;44258;51.288;12.068;2023-02-20T10:50:07;6.47;;;2.00;;
58470;SDS011;44258;51.288;12.068;2023-02-20T10:52:38;7.60;;;2.38;;
58470;SDS011;44258;51.288;12.068;2023-02-20T10:55:13;6.28;;;2.13;;
58470;SDS011;44258;51.288;12.068;2023-02-20T10:57:44;4.75;;;1.63;;
58470;SDS011;44258;51.288;12.068;2023-02-20T11:00:15;5.05;;;2.08;;
58470;SDS011;44258;51.288;12.068;2023-02-20T11:02:47;9.07;;;2.17;;
58470;SDS011;44258;51.288;12.068;2023-02-20T11:05:21;3.97;;;1.85;;
58470;SDS011;44258;51.288;12.068;2023-02-20T11:07:51;5.00;;;1.80;;
58470;SDS011;44258;51.288;12.068;2023-02-20T11:10:18;5.90;;;2.03;;
58470;SDS011;44258;51.288;12.068;2023-02-20T11:12:45;5.78;;;2.00;;
58470;SDS011;44258;51.288;12.068;2023-02-20T11:15:16;5.20;;;1.92;;
58470;SDS011;44258;51.288;12.068;2023-02-20T11:17:49;4.47;;;1.98;;
58470;SDS011;44258;51.288;12.068;2023-02-20T11:20:37;4.15;;;1.88;;
58470;SDS011;44258;51.288;12.068;2023-02-20T11:23:06;6.32;;;1.98;;
58470;SDS011;44258;51.288;12.068;2023-02-20T11:25:34;5.55;;;1.90;;
58470;SDS011;44258;51.288;12.068;2023-02-20T11:28:06;4.13;;;2.00;;
58470;SDS011;44258;51.288;12.068;2023-02-20T11:30:35;4.82;;;1.70;;
58470;SDS011;44258;51.288;12.068;2023-02-20T11:33:09;6.00;;;1.90;;
58470;SDS011;44258;51.288;12.068;2023-02-20T11:35:39;2.95;;;1.67;;
58470;SDS011;44258;51.288;12.068;2023-02-20T11:38:23;3.78;;;1.42;;
58470;SDS011;44258;51.288;12.068;2023-02-20T11:41:08;4.40;;;1.50;;
58470;SDS011;44258;51.288;12.068;2023-02-20T11:46:43;3.72;;;1.83;;
58470;SDS011;44258;51.288;12.068;2023-02-20T11:49:21;4.05;;;1.52;;
58470;SDS011;44258;51.288;12.068;2023-02-20T11:51:50;4.53;;;1.83;;
58470;SDS011;44258;51.288;12.068;2023-02-20T11:54:18;4.10;;;1.65;;
58470;SDS011;44258;51.288;12.068;2023-02-20T11:56:53;3.13;;;1.60;;
58470;SDS011;44258;51.288;12.068;2023-02-20T11:59:25;3.20;;;0.82;;
58470;SDS011;44258;51.288;12.068;2023-02-20T12:07:44;3.13;;;1.55;;
58470;SDS011;44258;51.288;12.068;2023-02-20T12:10:28;4.03;;;1.42;;
58470;SDS011;44258;51.288;12.068;2023-02-20T12:13:03;5.20;;;1.60;;
58470;SDS011;44258;51.288;12.068;2023-02-20T12:15:31;3.60;;;1.25;;
58470;SDS011;44258;51.288;12.068;2023-02-20T12:21:09;3.72;;;1.25;;
58470;SDS011;44258;51.288;12.068;2023-02-20T12:23:45;3.13;;;1.40;;
58470;SDS011;44258;51.288;12.068;2023-02-20T12:26:21;2.10;;;1.13;;
58470;SDS011;44258;51.288;12.068;2023-02-20T12:29:03;3.40;;;1.38;;
58470;SDS011;44258;51.288;12.068;2023-02-20T12:31:42;3.53;;;1.20;;
58470;SDS011;44258;51.288;12.068;2023-02-20T12:34:25;4.63;;;1.30;;
58470;SDS011;44258;51.288;12.068;2023-02-20T12:37:09;4.13;;;1.40;;
58470;SDS011;44258;51.288;12.068;2023-02-20T12:42:20;4.03;;;1.27;;
58470;SDS011;44258;51.288;12.068;2023-02-20T12:45:08;2.25;;;1.30;;
58470;SDS011;44258;51.288;12.068;2023-02-20T12:47:44;3.42;;;1.42;;
58470;SDS011;44258;51.288;12.068;2023-02-20T12:56:09;3.38;;;1.40;;
58470;SDS011;44258;51.288;12.068;2023-02-20T12:58:49;3.40;;;1.40;;
58470;SDS011;44258;51.288;12.068;2023-02-20T13:01:22;2.13;;;1.02;;
58470;SDS011;44258;51.288;12.068;2023-02-20T13:03:51;2.90;;;1.20;;
58470;SDS011;44258;51.288;12.068;2023-02-20T13:06:29;3.83;;;1.50;;
58470;SDS011;44258;51.288;12.068;2023-02-20T13:09:02;3.40;;;1.48;;
58470;SDS011;44258;51.288;12.068;2023-02-20T13:11:40;3.42;;;1.20;;
58470;SDS011;44258;51.288;12.068;2023-02-20T13:14:15;3.33;;;1.10;;
58470;SDS011;44258;51.288;12.068;2023-02-20T13:16:53;3.00;;;1.38;;
58470;SDS011;44258;51.288;12.068;2023-02-20T13:19:27;4.25;;;1.20;;
58470;SDS011;44258;51.288;12.068;2023-02-20T13:22:00;4.47;;;1.63;;
58470;SDS011;44258;51.288;12.068;2023-02-20T13:24:31;4.70;;;1.30;;
58470;SDS011;44258;51.288;12.068;2023-02-20T13:27:00;4.68;;;1.55;;
58470;SDS011;44258;51.288;12.068;2023-02-20T13:29:31;5.95;;;1.40;;
58470;SDS011;44258;51.288;12.068;2023-02-20T13:31:59;2.75;;;1.23;;
58470;SDS011;44258;51.288;12.068;2023-02-20T13:34:36;4.70;;;1.70;;
58470;SDS011;44258;51.288;12.068;2023-02-20T13:37:04;3.63;;;1.50;;
58470;SDS011;44258;51.288;12.068;2023-02-20T13:43:24;3.72;;;1.73;;
58470;SDS011;44258;51.288;12.068;2023-02-20T13:46:11;3.05;;;1.20;;
58470;SDS011;44258;51.288;12.068;2023-02-20T13:48:45;3.38;;;1.63;;
58470;SDS011;44258;51.288;12.068;2023-02-20T13:51:29;4.18;;;1.35;;
58470;SDS011;44258;51.288;12.068;2023-02-20T13:53:59;4.22;;;1.50;;
58470;SDS011;44258;51.288;12.068;2023-02-20T13:56:44;3.47;;;1.52;;
58470;SDS011;44258;51.288;12.068;2023-02-20T13:59:13;4.10;;;1.70;;
58470;SDS011;44258;51.288;12.068;2023-02-20T14:02:00;4.72;;;1.73;;
58470;SDS011;44258;51.288;12.068;2023-02-20T14:04:29;4.05;;;1.67;;
58470;SDS011;44258;51.288;12.068;2023-02-20T14:06:56;5.13;;;1.70;;
58470;SDS011;44258;51.288;12.068;2023-02-20T14:09:24;5.28;;;1.90;;
58470;SDS011;44258;51.288;12.068;2023-02-20T14:12:02;5.47;;;1.88;;
58470;SDS011;44258;51.288;12.068;2023-02-20T14:14:33;5.20;;;1.98;;
58470;SDS011;44258;51.288;12.068;2023-02-20T14:17:03;2.85;;;1.45;;
58470;SDS011;44258;51.288;12.068;2023-02-20T14:19:40;6.40;;;2.05;;
58470;SDS011;44258;51.288;12.068;2023-02-20T14:22:25;4.43;;;1.77;;
58470;SDS011;44258;51.288;12.068;2023-02-20T14:25:01;5.78;;;2.00;;
58470;SDS011;44258;51.288;12.068;2023-02-20T14:27:45;6.50;;;1.77;;
58470;SDS011;44258;51.288;12.068;2023-02-20T14:30:12;4.18;;;1.67;;
58470;SDS011;44258;51.288;12.068;2023-02-20T14:32:41;6.85;;;1.85;;
58470;SDS011;44258;51.288;12.068;2023-02-20T14:35:11;5.28;;;1.80;;
58470;SDS011;44258;51.288;12.068;2023-02-20T14:37:51;3.85;;;1.83;;
58470;SDS011;44258;51.288;12.068;2023-02-20T14:40:26;4.07;;;1.95;;
58470;SDS011;44258;51.288;12.068;2023-02-20T14:43:00;4.18;;;1.63;;
58470;SDS011;44258;51.288;12.068;2023-02-20T14:45:28;4.15;;;1.50;;
58470;SDS011;44258;51.288;12.068;2023-02-20T14:47:56;3.45;;;1.63;;
58470;SDS011;44258;51.288;12.068;2023-02-20T14:50:26;6.60;;;2.33;;
58470;SDS011;44258;51.288;12.068;2023-02-20T14:53:03;5.95;;;1.92;;
58470;SDS011;44258;51.288;12.068;2023-02-20T14:58:05;4.18;;;1.73;;
58470;SDS011;44258;51.288;12.068;2023-02-20T15:00:33;5.78;;;1.63;;
58470;SDS011;44258;51.288;12.068;2023-02-20T15:03:06;3.88;;;1.83;;
58470;SDS011;44258;51.288;12.068;2023-02-20T15:05:39;4.57;;;1.75;;
58470;SDS011;44258;51.288;12.068;2023-02-20T15:08:11;3.63;;;1.45;;
58470;SDS011;44258;51.288;12.068;2023-02-20T15:10:47;4.70;;;1.67;;
58470;SDS011;44258;51.288;12.068;2023-02-20T15:13:19;5.03;;;1.77;;
58470;SDS011;44258;51.288;12.068;2023-02-20T15:15:48;4.60;;;1.73;;
58470;SDS011;44258;51.288;12.068;2023-02-20T15:18:28;5.70;;;1.58;;
58470;SDS011;44258;51.288;12.068;2023-02-20T15:20:58;5.00;;;1.73;;
58470;SDS011;44258;51.288;12.068;2023-02-20T15:23:27;3.72;;;1.70;;
58470;SDS011;44258;51.288;12.068;2023-02-20T15:25:54;4.10;;;1.33;;
58470;SDS011;44258;51.288;12.068;2023-02-20T15:28:27;5.57;;;1.40;;
58470;SDS011;44258;51.288;12.068;2023-02-20T15:30:59;4.07;;;1.40;;